Time;durP1;ratioP1;P1;durP2;ratioP2;P2;SDS_P1;SDS_P2;PMS_P1;PMS_P2;Temp;Humidity;BMP_temperature;BMP_pressure;BME280_temperature;BME280_humidity;BME280_pressure;Samples;Min_cycle;Max_cycle;Signal;HPM_P1;HPM_P2
2022/07/04 00:01:53;;;;;;;7.68;3.75;;;;;;;20.50;66.27;101152.06;5030473;28;20053;-57
2022/07/04 00:04:22;;;;;;;7.40;3.97;;;;;;;20.48;66.43;101156.53;5030360;28;20067;-56
2022/07/04 00:06:49;;;;;;;4.15;3.50;;;;;;;20.46;66.42;101145.22;5030452;28;20053;-57
2022/07/04 00:09:19;;;;;;;5.65;3.83;;;;;;;20.45;66.36;101152.25;5030338;28;20045;-55
2022/07/04 00:11:48;;;;;;;7.40;4.38;;;;;;;20.43;66.39;101150.63;5030273;28;20057;-56
2022/07/04 00:14:23;;;;;;;4.72;4.20;;;;;;;20.40;66.56;101142.84;5030290;28;20053;-57
2022/07/04 00:17:06;;;;;;;7.18;4.55;;;;;;;20.39;66.65;101138.47;5030453;28;20080;-57
2022/07/04 00:19:32;;;;;;;6.15;4.78;;;;;;;20.37;66.89;101143.81;5029878;28;20053;-57
2022/07/04 00:22:02;;;;;;;6.20;4.38;;;;;;;20.37;66.88;101141.16;5030037;28;20060;-57
2022/07/04 00:24:33;;;;;;;5.40;3.85;;;;;;;20.36;66.75;101141.25;5029376;28;20088;-56
2022/07/04 00:27:00;;;;;;;5.63;3.80;;;;;;;20.33;66.75;101141.38;5030258;28;20132;-56
2022/07/04 00:29:32;;;;;;;6.65;4.05;;;;;;;20.29;66.66;101132.75;5029758;28;20434;-57
2022/07/04 00:32:04;;;;;;;8.88;4.63;;;;;;;20.26;66.63;101139.88;5030271;28;20085;-57
2022/07/04 00:34:33;;;;;;;5.72;4.10;;;;;;;20.23;66.93;101138.25;5030277;28;20053;-56
2022/07/04 00:37:02;;;;;;;6.13;4.35;;;;;;;20.21;66.88;101136.59;5030064;28;20541;-56
2022/07/04 00:39:31;;;;;;;7.00;4.70;;;;;;;20.18;66.85;101134.94;5029885;28;20085;-56
2022/07/04 00:41:58;;;;;;;7.38;4.93;;;;;;;20.17;66.89;101136.72;5029774;28;20375;-56
2022/07/04 00:44:29;;;;;;;7.88;4.63;;;;;;;20.14;66.94;101131.59;5033490;28;20053;-57
2022/07/04 00:47:00;;;;;;;8.98;4.80;;;;;;;20.13;67.36;101132.50;5033954;28;20168;-57
2022/07/04 00:49:40;;;;;;;5.63;4.70;;;;;;;20.12;67.08;101122.91;5028333;28;20053;-57
2022/07/04 00:52:16;;;;;;;6.60;4.60;;;;;;;20.10;67.45;101122.09;5013680;28;20161;-57
2022/07/04 00:54:46;;;;;;;5.88;4.07;;;;;;;20.09;67.43;101116.91;5013648;28;20502;-55
2022/07/04 00:57:16;;;;;;;6.65;4.40;;;;;;;20.08;67.42;101116.06;5013910;28;20061;-57
2022/07/04 00:59:46;;;;;;;5.55;3.97;;;;;;;20.05;67.42;101116.19;5013983;28;20046;-57
2022/07/04 01:02:16;;;;;;;6.60;4.35;;;;;;;20.05;67.51;101116.19;5022244;28;20057;-56
2022/07/04 01:04:51;;;;;;;5.13;4.43;;;;;;;20.04;67.59;101108.34;5033554;28;20613;-57
2022/07/04 01:07:20;;;;;;;6.22;4.55;;;;;;;20.01;67.66;101108.47;5033703;28;20057;-56
2022/07/04 01:09:50;;;;;;;7.47;4.25;;;;;;;19.99;67.51;101105.91;5033681;28;20273;-56
2022/07/04 01:12:29;;;;;;;8.98;5.00;;;;;;;19.96;67.11;101111.31;5033558;28;20465;-56
2022/07/04 01:14:57;;;;;;;7.07;4.38;;;;;;;19.94;67.42;101107.88;5033664;28;20155;-57
2022/07/04 01:17:28;;;;;;;8.32;4.45;;;;;;;19.93;67.18;101114.06;5033272;28;20501;-57
2022/07/04 01:20:04;;;;;;;6.95;4.45;;;;;;;19.93;67.18;101118.47;5032695;28;20066;-56
2022/07/04 01:22:46;;;;;;;7.13;5.03;;;;;;;19.89;67.36;101109.84;5033077;28;20064;-55
2022/07/04 01:25:14;;;;;;;9.95;5.47;;;;;;;19.85;67.49;101105.63;5033333;28;20050;-56
2022/07/04 01:27:44;;;;;;;7.82;5.03;;;;;;;19.84;67.59;101107.41;5033428;28;20061;-56
2022/07/04 01:30:14;;;;;;;7.95;4.82;;;;;;;19.83;67.51;101104.84;5033245;28;20049;-56
2022/07/04 01:32:43;;;;;;;6.90;4.97;;;;;;;19.81;67.36;101111.94;5033136;28;20053;-56
2022/07/04 01:35:12;;;;;;;5.78;4.60;;;;;;;19.78;67.49;101106.81;5033134;28;20405;-56
2022/07/04 01:37:43;;;;;;;6.43;5.07;;;;;;;19.77;67.67;101110.31;5033150;28;20073;-56
2022/07/04 01:40:12;;;;;;;6.70;5.00;;;;;;;19.76;67.79;101113.88;5032860;28;20089;-56
2022/07/04 01:42:43;;;;;;;6.85;5.45;;;;;;;19.74;67.77;101110.44;5032997;28;20053;-55
2022/07/04 01:45:20;;;;;;;7.35;4.97;;;;;;;19.73;68.02;101108.72;5032822;28;20053;-55
2022/07/04 01:47:49;;;;;;;5.57;3.88;;;;;;;19.72;68.14;101107.03;5032926;28;20061;-57
2022/07/04 01:50:16;;;;;;;6.80;4.22;;;;;;;19.71;68.00;101105.31;5032251;28;20406;-56
2022/07/04 01:52:48;;;;;;;8.15;4.50;;;;;;;19.70;67.83;101104.44;5032020;28;20053;-55
2022/07/04 01:57:57;;;;;;;6.13;4.30;;;;;;;19.66;68.30;101102.00;5032189;28;20053;-55
2022/07/04 02:03:13;;;;;;;12.45;5.60;;;;;;;19.62;68.74;101108.31;5032064;28;20114;-55
2022/07/04 02:05:43;;;;;;;11.80;5.60;;;;;;;19.63;68.87;101107.41;5031990;28;20085;-55
2022/07/04 02:08:20;;;;;;;9.32;5.15;;;;;;;19.61;68.88;101103.97;5032027;28;20391;-57
2022/07/04 02:10:50;;;;;;;6.88;5.30;;;;;;;19.59;68.68;101111.06;5032145;28;20049;-59
2022/07/04 02:13:21;;;;;;;7.88;4.38;;;;;;;19.59;68.70;101113.69;5032431;28;20132;-58
2022/07/04 02:15:48;;;;;;;7.68;5.20;;;;;;;19.57;68.82;101112.91;5032450;28;20057;-58
2022/07/04 02:18:15;;;;;;;7.45;5.65;;;;;;;19.55;68.99;101110.34;5032335;28;20050;-58
2022/07/04 02:20:44;;;;;;;5.75;4.88;;;;;;;19.56;69.12;101105.94;5031691;28;20071;-58
2022/07/04 02:23:16;;;;;;;5.80;5.03;;;;;;;19.54;69.53;101098.97;5032204;28;20083;-56
2022/07/04 02:25:46;;;;;;;6.65;4.82;;;;;;;19.58;69.60;101093.56;5033254;28;20053;-56
2022/07/04 02:30:55;;;;;;;6.03;4.07;;;;;;;19.56;69.43;101100.66;5033275;28;20063;-56
2022/07/04 02:33:24;;;;;;;8.15;4.80;;;;;;;19.56;69.49;101100.66;5031704;28;20053;-58
2022/07/04 02:35:54;;;;;;;7.88;4.65;;;;;;;19.55;69.39;101105.06;5033784;28;20053;-57
2022/07/04 02:38:31;;;;;;;6.82;4.85;;;;;;;19.54;69.19;101098.09;5031016;28;20045;-56
2022/07/04 02:41:02;;;;;;;10.27;6.07;;;;;;;19.54;69.20;101101.59;5033998;28;20053;-57
2022/07/04 02:43:32;;;;;;;9.45;5.95;;;;;;;19.54;69.13;101096.31;5033950;28;20049;-57
2022/07/04 02:46:01;;;;;;;11.00;5.55;;;;;;;19.54;69.18;101098.97;5033720;28;20049;-57
2022/07/04 02:48:32;;;;;;;8.40;5.28;;;;;;;19.55;69.13;101102.44;5033500;28;20517;-57
2022/07/04 02:50:59;;;;;;;7.20;5.22;;;;;;;19.53;69.29;101102.50;5033535;28;20514;-56
2022/07/04 02:53:41;;;;;;;7.78;5.40;;;;;;;19.56;69.39;101105.94;5033563;28;20080;-57
2022/07/04 02:56:11;;;;;;;6.95;5.30;;;;;;;19.56;69.39;101095.41;5031610;28;20041;-57
2022/07/04 02:58:42;;;;;;;7.90;5.05;;;;;;;19.57;69.34;101105.00;5033350;28;20053;-56
2022/07/04 03:01:10;;;;;;;7.63;4.78;;;;;;;19.58;69.41;101098.84;5033277;28;20046;-57
2022/07/04 03:03:38;;;;;;;6.00;4.15;;;;;;;19.59;69.03;101100.53;5032903;28;20476;-57
2022/07/04 03:06:09;;;;;;;8.07;5.10;;;;;;;19.62;69.20;101110.94;5033084;28;20071;-58
2022/07/04 03:08:58;;;;;;;8.43;4.90;;;;;;;19.63;69.09;101103.00;5033130;28;20053;-57
2022/07/04 03:11:28;;;;;;;6.82;4.65;;;;;;;19.64;69.33;101103.84;5030948;28;20056;-58
2022/07/04 03:13:56;;;;;;;7.43;5.13;;;;;;;19.67;69.60;101098.47;5033093;28;20058;-57
2022/07/04 03:16:25;;;;;;;7.30;4.55;;;;;;;19.68;69.71;101106.28;5030522;28;20063;-57
2022/07/04 03:18:53;;;;;;;9.05;4.72;;;;;;;19.71;69.67;101102.69;5032130;28;20142;-56
2022/07/04 03:21:24;;;;;;;7.43;4.40;;;;;;;19.72;69.58;101107.03;5033033;28;20126;-57
2022/07/04 03:23:58;;;;;;;8.13;4.70;;;;;;;19.76;69.57;101100.72;5033388;28;20053;-57
2022/07/04 03:26:26;;;;;;;8.57;4.55;;;;;;;19.77;69.58;101105.06;5029426;28;20055;-54
2022/07/04 03:28:52;;;;;;;7.25;4.28;;;;;;;19.83;69.47;101104.84;5032867;28;20049;-55
2022/07/04 03:31:19;;;;;;;7.53;5.10;;;;;;;19.91;69.37;101105.38;5032390;28;20059;-56
2022/07/04 03:33:50;;;;;;;6.07;4.53;;;;;;;19.98;69.21;101103.34;5031140;28;20046;-54
2022/07/04 03:36:18;;;;;;;8.60;5.32;;;;;;;20.08;69.21;101102.91;5032364;28;20045;-54
2022/07/04 03:38:45;;;;;;;8.77;4.65;;;;;;;20.19;69.24;101099.81;5032524;28;20053;-54
2022/07/04 03:41:25;;;;;;;8.48;5.05;;;;;;;20.30;69.06;101096.75;5032400;28;20072;-57
2022/07/04 03:43:55;;;;;;;6.07;4.70;;;;;;;20.39;68.79;101109.50;5031084;28;20053;-56
2022/07/04 03:46:24;;;;;;;9.85;5.75;;;;;;;20.49;68.82;101105.59;5029895;28;20053;-58
2022/07/04 03:48:55;;;;;;;10.13;6.43;;;;;;;20.65;68.68;101111.88;5032352;28;20049;-58
2022/07/04 03:51:23;;;;;;;8.65;6.22;;;;;;;20.79;68.58;101109.50;5030016;28;20079;-58
2022/07/04 03:53:52;;;;;;;7.65;5.32;;;;;;;20.95;68.28;101108.81;5032346;28;20053;-56
2022/07/04 03:56:20;;;;;;;9.18;4.75;;;;;;;21.11;68.25;101107.19;5032294;28;20056;-55
2022/07/04 03:58:56;;;;;;;12.43;5.95;;;;;;;21.32;67.86;101103.56;5032154;28;20061;-54
2022/07/04 04:01:22;;;;;;;13.20;5.47;;;;;;;21.55;67.43;101110.41;5029942;28;20048;-56
2022/07/04 04:06:37;;;;;;;;;;;;;;;21.96;66.95;101113.69;5031732;28;20134;-56
2022/07/04 04:09:12;;;;;;;5.82;2.65;;;;;;;22.23;65.83;101107.97;5029887;28;19936;-56
2022/07/04 04:11:56;;;;;;;6.97;3.10;;;;;;;22.48;64.72;101105.81;5031748;28;20132;-58
2022/07/04 04:14:36;;;;;;;5.40;2.65;;;;;;;22.71;63.90;101109.88;5029957;28;20049;-55
2022/07/04 04:17:05;;;;;;;11.40;3.70;;;;;;;22.92;63.27;101102.66;5029806;28;20045;-56
2022/07/04 04:19:34;;;;;;;4.80;2.05;;;;;;;23.06;62.50;101100.09;5036085;28;20050;-55
2022/07/04 04:22:07;;;;;;;17.42;2.83;;;;;;;23.21;61.73;101096.63;5036090;28;20045;-57
2022/07/04 04:24:37;;;;;;;3.08;2.00;;;;;;;23.30;61.02;101093.47;5036565;28;20119;-57
2022/07/04 04:27:19;;;;;;;5.45;2.80;;;;;;;23.40;60.41;101087.66;5033990;28;20128;-57
2022/07/04 04:29:45;;;;;;;7.38;2.50;;;;;;;23.44;60.41;101089.22;5033899;28;20041;-57
2022/07/04 04:32:21;;;;;;;9.45;2.42;;;;;;;23.47;60.31;101095.19;5035964;28;20076;-57
2022/07/04 04:34:51;;;;;;;6.20;2.20;;;;;;;23.45;60.39;101096.22;5034634;28;20060;-57
2022/07/04 04:37:22;;;;;;;8.80;2.40;;;;;;;23.42;60.28;101091.94;5035958;28;20045;-58
2022/07/04 04:39:48;;;;;;;17.63;3.33;;;;;;;23.41;60.09;101089.34;5036168;28;20049;-57
2022/07/04 04:42:24;;;;;;;5.32;2.05;;;;;;;23.43;60.00;101082.22;5035906;28;20394;-57
2022/07/04 04:44:50;;;;;;;27.95;2.55;;;;;;;23.51;60.13;101090.56;5034152;28;20486;-57
2022/07/04 04:47:18;;;;;;;8.25;2.80;;;;;;;23.62;59.69;101088.19;5032443;28;20053;-58
2022/07/04 04:49:48;;;;;;;8.73;2.65;;;;;;;23.76;59.07;101096.19;5035832;28;20049;-58
2022/07/04 04:52:19;;;;;;;5.53;1.90;;;;;;;23.96;58.54;101086.25;5035634;28;20049;-57
2022/07/04 04:54:49;;;;;;;3.72;2.40;;;;;;;24.18;57.90;101086.69;5033937;28;20072;-57
2022/07/04 04:57:38;;;;;;;15.30;2.30;;;;;;;24.42;57.04;101090.53;5035647;28;20053;-56
2022/07/04 05:00:07;;;;;;;3.00;1.75;;;;;;;24.64;56.49;101090.13;5033479;28;20092;-58
2022/07/04 05:02:37;;;;;;;2.83;2.00;;;;;;;24.88;55.69;101084.22;5034745;28;20049;-57
2022/07/04 05:05:13;;;;;;;3.97;1.90;;;;;;;25.12;54.88;101083.59;5035762;28;20115;-54
2022/07/04 05:07:40;;;;;;;7.40;2.47;;;;;;;25.37;54.06;101087.31;5035551;28;20084;-56
2022/07/04 05:10:09;;;;;;;6.05;2.10;;;;;;;25.63;53.45;101088.31;5035708;28;20041;-56
2022/07/04 05:12:45;;;;;;;3.40;1.80;;;;;;;25.91;52.38;101092.66;5035203;28;20045;-58
2022/07/04 05:15:13;;;;;;;4.97;1.95;;;;;;;26.18;51.12;101095.28;5034021;28;20072;-58
2022/07/04 05:17:41;;;;;;;5.22;1.52;;;;;;;26.47;50.72;101090.66;5035322;28;20053;-58
2022/07/04 05:20:18;;;;;;;3.88;1.90;;;;;;;26.62;50.14;101089.59;5035035;28;20052;-58
2022/07/04 05:22:48;;;;;;;4.80;1.85;;;;;;;26.70;50.12;101084.59;5032998;28;20053;-57
2022/07/04 05:25:24;;;;;;;3.78;1.50;;;;;;;26.68;49.40;101081.19;5035219;28;20064;-58
2022/07/04 05:28:00;;;;;;;7.05;1.65;;;;;;;26.66;48.86;101081.31;5033767;28;20049;-56
2022/07/04 05:30:30;;;;;;;12.30;2.10;;;;;;;26.58;48.82;101082.81;5032640;28;20080;-57
2022/07/04 05:33:01;;;;;;;4.82;1.65;;;;;;;26.58;48.67;101080.16;5034669;28;20465;-58
2022/07/04 05:35:31;;;;;;;2.92;1.60;;;;;;;26.64;48.66;101079.72;5035174;28;20045;-58
2022/07/04 05:38:02;;;;;;;4.88;2.10;;;;;;;26.64;48.44;101079.72;5034976;28;20074;-55
2022/07/04 05:40:32;;;;;;;4.97;1.88;;;;;;;26.62;48.49;101081.63;5034756;28;20402;-58
2022/07/04 05:43:02;;;;;;;7.75;2.28;;;;;;;26.54;48.22;101089.28;5035009;28;20053;-58
2022/07/04 05:45:32;;;;;;;10.32;2.40;;;;;;;26.52;48.72;101081.41;5034648;28;20366;-58
2022/07/04 05:48:03;;;;;;;6.00;2.63;;;;;;;26.58;49.29;101078.34;5034406;28;20049;-58
2022/07/04 05:50:31;;;;;;;7.20;2.20;;;;;;;26.53;48.70;101082.25;5034739;28;20053;-58
2022/07/04 05:52:58;;;;;;;4.93;1.92;;;;;;;26.52;48.81;101080.53;5034541;28;20114;-57
2022/07/04 05:55:29;;;;;;;4.45;2.15;;;;;;;26.48;48.96;101081.72;5033190;28;20049;-58
2022/07/04 05:58:03;;;;;;;5.70;1.80;;;;;;;26.51;48.90;101068.22;5034649;28;20053;-58
2022/07/04 06:00:39;;;;;;;7.85;2.42;;;;;;;26.55;48.98;101069.72;5032898;28;20049;-58
2022/07/04 06:03:15;;;;;;;7.45;2.22;;;;;;;26.65;49.24;101065.47;5034648;28;20045;-58
2022/07/04 06:05:45;;;;;;;2.60;1.60;;;;;;;26.84;48.98;101068.53;5032088;28;20033;-55
2022/07/04 06:08:15;;;;;;;4.72;1.80;;;;;;;27.02;48.64;101059.25;5034360;28;20052;-57
2022/07/04 06:10:42;;;;;;;4.57;2.13;;;;;;;27.21;48.62;101069.44;5031738;28;20076;-56
2022/07/04 06:13:09;;;;;;;4.88;2.00;;;;;;;27.45;47.94;101071.25;5034282;28;20045;-58
2022/07/04 06:15:53;;;;;;;4.40;1.80;;;;;;;27.71;47.57;101061.38;5034182;28;20060;-58
2022/07/04 06:18:20;;;;;;;7.30;2.15;;;;;;;27.90;47.43;101061.69;5034127;28;20103;-58
2022/07/04 06:20:49;;;;;;;11.27;3.70;;;;;;;28.10;46.93;101061.03;5033213;28;20494;-57
2022/07/04 06:23:16;;;;;;;4.03;1.90;;;;;;;28.28;46.43;101056.97;5033784;28;20049;-56
2022/07/04 06:25:47;;;;;;;3.72;1.70;;;;;;;28.48;45.88;101057.25;5031240;28;20045;-57
2022/07/04 06:28:17;;;;;;;3.50;1.70;;;;;;;28.70;45.12;101057.25;5033760;28;20406;-58
2022/07/04 06:30:57;;;;;;;3.42;1.95;;;;;;;28.96;44.40;101062.38;5030727;28;20378;-58
2022/07/04 06:33:27;;;;;;;27.40;3.30;;;;;;;29.16;43.96;101061.63;5030807;28;20056;-58
2022/07/04 06:35:54;;;;;;;3.70;1.83;;;;;;;29.37;43.52;101062.53;5033762;28;20068;-57
2022/07/04 06:38:23;;;;;;;2.85;1.80;;;;;;;29.58;42.86;101064.44;5033428;28;20088;-54
2022/07/04 06:41:01;;;;;;;3.72;1.95;;;;;;;29.76;42.47;101069.13;5032260;28;20060;-56
2022/07/04 06:43:27;;;;;;;12.38;2.00;;;;;;;29.92;42.36;101063.31;5032167;28;20049;-56
2022/07/04 06:46:10;;;;;;;3.15;2.10;;;;;;;30.07;41.79;101066.56;5033213;28;20060;-55
2022/07/04 06:48:40;;;;;;;3.38;1.80;;;;;;;30.13;42.24;101066.03;5032978;28;20095;-57
2022/07/04 06:51:07;;;;;;;5.88;1.90;;;;;;;30.32;41.62;101076.00;5031306;28;20077;-58
2022/07/04 06:53:34;;;;;;;58.67;6.18;;;;;;;30.48;41.83;101072.84;5033582;28;20049;-58
2022/07/04 06:56:05;;;;;;;6.13;2.42;;;;;;;30.63;41.32;101069.72;5033456;28;20060;-58
2022/07/04 06:58:35;;;;;;;4.05;2.33;;;;;;;30.73;40.63;101062.59;5033393;28;20049;-58
2022/07/04 07:01:18;;;;;;;28.80;3.90;;;;;;;30.89;40.34;101067.44;5032977;28;20458;-57
2022/07/04 07:03:48;;;;;;;4.57;2.08;;;;;;;30.93;40.42;101068.03;5031064;28;20049;-58
2022/07/04 07:06:17;;;;;;;3.20;1.77;;;;;;;30.97;41.25;101069.44;5033330;28;20111;-57
2022/07/04 07:08:48;;;;;;;4.53;1.90;;;;;;;30.92;40.95;101069.00;5030937;28;20053;-58
2022/07/04 07:11:18;;;;;;;6.78;2.38;;;;;;;30.91;41.04;101061.97;5033665;28;20061;-58
2022/07/04 07:13:50;;;;;;;3.88;1.90;;;;;;;30.87;40.49;101060.53;5030706;28;20045;-57
2022/07/04 07:16:34;;;;;;;5.20;1.70;;;;;;;30.79;39.45;101065.72;5033342;28;20080;-57
2022/07/04 07:19:03;;;;;;;6.70;2.20;;;;;;;30.70;40.70;101060.19;5032842;28;20061;-58
2022/07/04 07:21:32;;;;;;;3.35;1.63;;;;;;;30.60;40.46;101061.97;5032736;28;20053;-58
2022/07/04 07:24:03;;;;;;;2.92;1.63;;;;;;;30.46;40.60;101059.63;5033016;28;20049;-58
2022/07/04 07:26:32;;;;;;;7.35;1.95;;;;;;;30.31;41.14;101064.47;5033271;28;20143;-57
2022/07/04 07:29:02;;;;;;;7.93;2.30;;;;;;;30.15;41.33;101064.91;5032794;28;20045;-58
2022/07/04 07:31:43;;;;;;;4.75;1.88;;;;;;;29.95;41.77;101078.25;5033175;28;20041;-58
2022/07/04 07:34:11;;;;;;;2.85;1.88;;;;;;;29.76;42.29;101073.63;5031406;28;20050;-58
2022/07/04 07:36:42;;;;;;;3.15;1.60;;;;;;;29.58;42.33;101070.63;5032773;28;20053;-57
2022/07/04 07:39:12;;;;;;;6.95;1.63;;;;;;;29.41;42.76;101074.66;5032593;28;20434;-58
2022/07/04 07:41:40;;;;;;;5.15;1.50;;;;;;;29.21;42.58;101073.63;5032802;28;20037;-57
2022/07/04 07:44:10;;;;;;;6.20;1.60;;;;;;;29.03;42.30;101074.25;5032505;28;20045;-57
2022/07/04 07:46:51;;;;;;;10.57;1.85;;;;;;;28.99;41.51;101075.47;5032913;28;20149;-57
2022/07/04 07:49:26;;;;;;;8.02;1.50;;;;;;;29.03;41.69;101074.25;5031773;28;20135;-57
2022/07/04 07:51:55;;;;;;;4.38;1.30;;;;;;;29.09;41.82;101063.06;5032340;28;20046;-58
2022/07/04 07:54:26;;;;;;;2.50;1.40;;;;;;;29.13;41.33;101065.34;5032225;28;20114;-58
2022/07/04 07:56:57;;;;;;;4.07;1.65;;;;;;;29.12;41.13;101065.47;5030572;28;20065;-58
2022/07/04 07:59:28;;;;;;;4.53;1.60;;;;;;;29.06;40.78;101066.84;5030315;28;20084;-58
2022/07/04 08:02:05;;;;;;;4.40;1.90;;;;;;;28.88;40.96;101076.31;5032356;28;20045;-58
2022/07/04 08:04:37;;;;;;;4.05;1.30;;;;;;;28.73;41.15;101077.50;5032520;28;20132;-58
2022/07/04 08:07:14;;;;;;;2.42;1.13;;;;;;;28.57;41.29;101077.84;5029868;28;20049;-58
2022/07/04 08:09:52;;;;;;;13.07;1.40;;;;;;;28.44;41.59;101077.97;5032335;28;20057;-58
2022/07/04 08:12:22;;;;;;;3.92;1.25;;;;;;;28.30;41.42;101080.84;5032471;28;20363;-58
2022/07/04 08:14:49;;;;;;;4.90;1.50;;;;;;;28.13;41.67;101084.78;5032463;28;20051;-58
2022/07/04 08:17:25;;;;;;;6.65;1.75;;;;;;;27.97;41.89;101078.91;5032395;28;20045;-58
2022/07/04 08:19:55;;;;;;;4.05;1.50;;;;;;;27.79;42.04;101080.28;5030427;28;20061;-58
2022/07/04 08:22:36;;;;;;;6.03;1.63;;;;;;;27.58;42.39;101088.91;5032339;28;20045;-58
2022/07/04 08:25:07;;;;;;;10.57;1.73;;;;;;;27.45;42.48;101093.41;5029797;28;20049;-58
2022/07/04 08:27:44;;;;;;;4.38;1.20;;;;;;;27.33;42.78;101088.97;5032401;28;20045;-58
2022/07/04 08:30:14;;;;;;;3.47;1.90;;;;;;;27.16;42.75;101086.69;5032179;28;20132;-58
2022/07/04 08:32:58;;;;;;;8.65;2.25;;;;;;;27.00;42.88;101082.44;5031996;28;20359;-58
2022/07/04 08:35:29;;;;;;;6.47;1.80;;;;;;;26.83;43.41;101074.78;5029784;28;20041;-58
2022/07/04 08:37:58;;;;;;;6.43;1.95;;;;;;;26.70;44.09;101079.28;5031980;28;20053;-58
2022/07/04 08:40:27;;;;;;;7.72;1.83;;;;;;;26.58;44.35;101082.81;5029632;28;20049;-58
2022/07/04 08:42:58;;;;;;;4.43;1.60;;;;;;;26.46;44.74;101088.94;5030955;28;20049;-58
2022/07/04 08:45:28;;;;;;;9.75;1.95;;;;;;;26.35;45.02;101090.53;5029695;28;20041;-58
2022/07/04 08:48:02;;;;;;;6.38;1.92;;;;;;;26.25;44.84;101094.75;5032274;28;20057;-57
2022/07/04 08:50:34;;;;;;;3.28;1.73;;;;;;;26.12;45.10;101093.91;5028590;28;20057;-56
2022/07/04 08:53:10;;;;;;;20.83;3.15;;;;;;;25.98;45.81;101091.28;5032056;28;20049;-57
2022/07/04 08:58:35;;;;;;;6.90;2.10;;;;;;;25.73;46.57;101108.00;5029274;28;20449;-58
2022/07/04 09:01:05;;;;;;;11.13;3.15;;;;;;;25.59;46.77;101108.03;5031858;28;20135;-58
2022/07/04 09:03:42;;;;;;;15.02;4.45;;;;;;;25.44;47.53;101101.88;5031969;28;20375;-58
2022/07/04 09:06:10;;;;;;;5.45;2.38;;;;;;;25.30;47.52;101083.38;5033706;28;20053;-58
2022/07/04 09:08:41;;;;;;;18.75;3.92;;;;;;;25.16;47.88;101087.75;5035025;28;20054;-58
2022/07/04 09:11:15;;;;;;;8.55;4.20;;;;;;;25.07;48.08;101083.03;5033348;28;20045;-58
2022/07/04 09:13:46;;;;;;;16.55;7.20;;;;;;;25.00;48.46;101036.63;5035223;28;20509;-58
2022/07/04 09:16:17;;;;;;;8.82;3.80;;;;;;;24.95;48.61;100998.91;5035222;28;20392;-57
2022/07/04 09:18:55;;;;;;;6.05;2.35;;;;;;;24.94;49.49;100981.28;5032717;28;20042;-58
2022/07/04 09:21:47;;;;;;;4.05;2.20;;;;;;;24.96;49.92;100979.38;5034911;28;20057;-58
2022/07/04 09:24:15;;;;;;;3.40;1.77;;;;;;;24.94;50.07;100960.06;5034131;28;20068;-57
2022/07/04 09:26:47;;;;;;;4.03;1.85;;;;;;;24.94;49.82;100933.56;5034848;28;20463;-57
2022/07/04 09:29:14;;;;;;;3.60;2.00;;;;;;;24.90;50.46;100955.91;5034502;28;20050;-55
2022/07/04 09:31:41;;;;;;;5.63;2.10;;;;;;;24.90;50.86;100971.81;5034522;28;20060;-57
2022/07/04 09:34:12;;;;;;;4.70;1.90;;;;;;;24.87;51.23;100990.59;5034681;28;20045;-56
2022/07/04 09:36:47;;;;;;;3.88;1.88;;;;;;;24.83;51.62;100991.72;5034618;28;20064;-56
2022/07/04 09:39:20;;;;;;;2.88;1.55;;;;;;;24.82;51.76;100993.53;5033348;28;20041;-57
2022/07/04 09:42:01;;;;;;;3.70;2.22;;;;;;;24.81;51.88;100983.03;5032440;28;20069;-57
2022/07/04 09:44:45;;;;;;;3.58;1.80;;;;;;;24.81;51.74;100989.16;5032128;28;20378;-54
2022/07/04 09:47:22;;;;;;;3.05;2.15;;;;;;;24.83;51.84;100989.06;5032874;28;20068;-56
2022/07/04 09:50:00;;;;;;;3.13;2.00;;;;;;;24.89;51.67;100999.28;5032066;28;20488;-56
2022/07/04 09:52:29;;;;;;;3.85;2.13;;;;;;;24.91;51.50;101002.69;5031879;28;20081;-56
2022/07/04 09:54:58;;;;;;;4.57;2.67;;;;;;;24.92;51.40;101000.88;5034443;28;20060;-56
2022/07/04 09:57:25;;;;;;;4.88;2.20;;;;;;;24.91;51.19;101008.00;5032042;28;20046;-57
2022/07/04 09:59:58;;;;;;;3.20;1.58;;;;;;;24.88;51.33;101008.19;5034381;28;20045;-58
2022/07/04 10:02:26;;;;;;;4.03;1.90;;;;;;;24.84;51.07;101012.00;5031742;28;20049;-58
2022/07/04 10:04:56;;;;;;;3.55;1.90;;;;;;;24.78;51.28;101015.03;5034235;28;20061;-58
2022/07/04 10:07:43;;;;;;;2.97;1.45;;;;;;;24.77;51.30;101015.97;5033938;28;20496;-58
2022/07/04 10:10:29;;;;;;;2.70;1.88;;;;;;;24.74;51.57;101017.03;5032287;28;20481;-58
2022/07/04 10:13:00;;;;;;;3.20;1.58;;;;;;;24.70;51.80;101019.97;5032291;28;20099;-58
2022/07/04 10:15:30;;;;;;;3.78;2.05;;;;;;;24.69;51.54;101028.88;5031264;28;20055;-58
2022/07/04 10:18:00;;;;;;;7.68;2.15;;;;;;;24.70;51.79;101026.13;5034397;28;20049;-58
2022/07/04 10:20:30;;;;;;;4.43;1.77;;;;;;;24.77;51.72;101015.97;5031293;28;20049;-58
2022/07/04 10:23:12;;;;;;;2.60;1.70;;;;;;;24.90;51.54;101016.91;5033874;28;20512;-58
2022/07/04 10:25:42;;;;;;;3.25;1.60;;;;;;;25.06;51.51;101012.38;5033299;28;20406;-57
2022/07/04 10:28:12;;;;;;;3.45;1.50;;;;;;;25.26;51.04;101018.19;5034009;28;20057;-58
2022/07/04 10:30:49;;;;;;;1.80;1.48;;;;;;;25.43;50.41;101020.56;5035257;28;20144;-58
2022/07/04 10:33:25;;;;;;;24.10;3.63;;;;;;;25.58;50.33;101014.28;5035288;28;20045;-58
2022/07/04 10:36:03;;;;;;;7.57;1.67;;;;;;;25.72;49.66;101011.59;5035147;28;20133;-57
2022/07/04 10:38:51;;;;;;;1.95;1.30;;;;;;;25.90;48.95;101011.28;5034812;28;20093;-58
2022/07/04 10:41:21;;;;;;;3.83;1.88;;;;;;;26.06;48.95;101011.97;5034927;28;20045;-58
2022/07/04 10:44:14;;;;;;;2.65;1.30;;;;;;;26.28;48.38;101009.50;5034808;28;20056;-58
2022/07/04 10:46:49;;;;;;;5.68;1.45;;;;;;;26.50;47.33;101010.69;5034792;28;20522;-58
2022/07/04 10:49:23;;;;;;;5.30;1.40;;;;;;;26.67;46.91;101005.06;5034925;28;20049;-58
2022/07/04 10:51:59;;;;;;;5.40;1.40;;;;;;;26.77;46.51;100998.13;5034976;28;20053;-58
2022/07/04 10:54:46;;;;;;;7.63;2.13;;;;;;;26.91;44.93;100997.97;5034713;28;20359;-58
2022/07/04 10:57:18;;;;;;;3.03;1.80;;;;;;;27.02;45.00;100995.41;5034828;28;20045;-58
2022/07/04 11:00:08;;;;;;;3.95;1.60;;;;;;;27.18;43.96;101002.28;5034918;28;20075;-58
2022/07/04 11:02:38;;;;;;;2.80;1.70;;;;;;;27.31;44.19;100997.75;5033514;28;20053;-56
2022/07/04 11:05:07;;;;;;;3.50;1.67;;;;;;;27.44;43.99;100995.88;5034801;28;20156;-55
2022/07/04 11:08:00;;;;;;;3.47;1.52;;;;;;;27.59;43.21;101002.72;5034453;28;20371;-58
2022/07/04 11:10:42;;;;;;;20.30;2.65;;;;;;;27.71;43.12;101002.78;5034803;28;20045;-58
2022/07/04 11:13:26;;;;;;;1.95;1.50;;;;;;;27.77;42.23;101004.97;5034573;28;20045;-58
2022/07/04 11:16:07;;;;;;;41.93;3.50;;;;;;;27.81;41.99;100998.47;5034744;28;20061;-58
2022/07/04 11:18:46;;;;;;;4.68;1.50;;;;;;;27.86;41.87;101001.63;5034445;28;20068;-58
2022/07/04 11:21:17;;;;;;;2.78;1.48;;;;;;;27.91;41.80;101004.78;5033798;28;20343;-58
2022/07/04 11:24:00;;;;;;;2.63;1.40;;;;;;;27.91;41.29;100999.44;5033752;28;20057;-58
2022/07/04 11:26:42;;;;;;;2.22;1.27;;;;;;;27.93;40.83;101002.84;5034127;28;20161;-58
2022/07/04 11:29:20;;;;;;;3.25;1.10;;;;;;;27.98;40.71;100998.00;5034416;28;20053;-58
2022/07/04 11:31:54;;;;;;;2.17;1.40;;;;;;;28.02;40.97;101002.13;5033962;28;20332;-58
2022/07/04 11:34:32;;;;;;;2.70;1.10;;;;;;;28.07;40.66;100999.09;5034353;28;20057;-58
2022/07/04 11:37:03;;;;;;;35.58;3.72;;;;;;;28.09;40.45;100995.34;5034147;28;20087;-58
2022/07/04 11:39:34;;;;;;;4.95;1.25;;;;;;;28.14;40.45;100995.88;5033281;28;20552;-58
2022/07/04 11:45:12;;;;;;;2.72;1.05;;;;;;;28.18;39.71;100986.66;5031266;28;20505;-58
2022/07/04 11:47:42;;;;;;;1.98;1.38;;;;;;;28.19;38.98;101004.34;5030829;28;20058;-58
2022/07/04 11:50:18;;;;;;;4.30;1.60;;;;;;;28.17;38.59;100995.63;5032219;28;20062;-58
2022/07/04 11:52:56;;;;;;;2.42;1.48;;;;;;;28.13;38.93;100993.31;5030291;28;20067;-58
2022/07/04 11:55:26;;;;;;;8.57;1.70;;;;;;;28.10;39.17;100999.75;5032881;28;20057;-58
2022/07/04 11:58:06;;;;;;;2.22;1.30;;;;;;;28.12;38.77;100995.16;5032322;28;20106;-58
2022/07/04 12:00:34;;;;;;;3.65;1.35;;;;;;;28.13;39.03;100988.84;5030855;28;20064;-58
2022/07/04 12:03:06;;;;;;;3.88;2.30;;;;;;;28.17;38.91;100994.78;5032287;28;20045;-58
2022/07/04 12:05:36;;;;;;;2.83;1.58;;;;;;;28.21;39.51;100999.75;5032328;28;20449;-58